createdAt,value
2017-11-05T08:34:21.315Z,39.65
2017-11-05T08:37:24.909Z,39.96
2017-11-05T08:39:53.962Z,39.59
2017-11-05T09:01:59.031Z,38.45
2017-11-05T09:15:59.886Z,58.10
2017-11-05T09:18:30.942Z,60.06
2017-11-05T09:23:35.965Z,64.37
2017-11-05T09:26:05.052Z,67.76
2017-11-05T09:28:34.113Z,69.10
2017-11-05T09:31:03.287Z,69.30
2017-11-05T09:33:34.808Z,69.16
2017-11-05T09:36:04.143Z,73.31
2017-11-05T09:38:33.297Z,73.56
2017-11-05T09:41:02.355Z,69.84
2017-11-05T09:43:31.455Z,73.82
2017-11-05T09:46:00.646Z,69.88
2017-11-05T09:48:30.267Z,73.69
2017-11-05T09:50:59.311Z,73.72
2017-11-05T09:53:28.446Z,72.93
2017-11-05T09:55:57.509Z,72.73
2017-11-05T09:58:26.583Z,70.62
2017-11-05T10:03:31.532Z,68.81
2017-11-05T10:06:01.569Z,69.51
2017-11-05T10:08:30.651Z,68.23
2017-11-05T10:10:59.710Z,71.02
2017-11-05T10:13:28.853Z,69.11
2017-11-05T10:16:00.065Z,70.72
2017-11-05T10:18:30.221Z,71.14
2017-11-05T10:20:59.639Z,71.69
2017-11-05T10:23:28.683Z,72.01
2017-11-05T10:25:57.753Z,71.94
2017-11-05T10:28:26.802Z,70.48
2017-11-05T10:30:55.977Z,71.19
2017-11-05T10:33:25.026Z,71.35
2017-11-05T10:38:31.707Z,68.44
2017-11-05T10:41:00.782Z,64.86
2017-11-05T10:43:29.832Z,61.32
2017-11-05T10:45:58.917Z,55.82
2017-11-05T10:48:27.964Z,53.91
2017-11-05T10:50:57.034Z,52.20
2017-11-05T10:53:26.073Z,54.56
2017-11-05T10:55:55.184Z,56.07
2017-11-05T10:58:24.243Z,57.52
2017-11-05T11:00:53.400Z,61.80
2017-11-05T11:08:34.439Z,64.58
2017-11-05T11:11:07.327Z,65.16
2017-11-05T11:13:36.399Z,67.90
2017-11-05T11:16:05.461Z,68.98
2017-11-05T11:18:34.504Z,69.00
2017-11-05T11:21:03.578Z,68.74
2017-11-05T11:23:32.638Z,68.90
2017-11-05T11:28:37.778Z,70.61
2017-11-05T11:31:06.850Z,69.75
2017-11-05T11:33:35.914Z,70.42
2017-11-05T11:36:04.960Z,71.47
2017-11-05T11:38:34.124Z,70.33
2017-11-05T11:41:03.213Z,71.60
2017-11-05T11:43:32.333Z,71.08
2017-11-05T11:46:01.374Z,71.65
2017-11-05T11:48:30.456Z,72.42
2017-11-05T11:50:59.519Z,72.64
2017-11-05T11:53:28.627Z,73.15
2017-11-05T11:55:57.762Z,72.35
2017-11-05T11:58:26.832Z,70.91
2017-11-05T12:00:59.672Z,71.47
2017-11-05T12:03:28.807Z,72.28
2017-11-05T12:05:57.879Z,71.83
2017-11-05T12:08:27.208Z,71.92
2017-11-05T12:10:56.272Z,72.21
2017-11-05T12:13:25.351Z,73.03
2017-11-05T12:15:54.624Z,73.55
2017-11-05T12:18:23.821Z,74.17
2017-11-05T12:20:52.865Z,74.11
2017-11-05T12:23:22.257Z,74.52
2017-11-05T12:28:28.259Z,74.97
2017-11-05T12:30:57.398Z,74.56
2017-11-05T12:33:26.510Z,74.91
2017-11-05T12:35:55.630Z,74.35
2017-11-05T12:38:24.708Z,76.34
2017-11-05T12:40:53.838Z,76.52
2017-11-05T12:43:22.995Z,77.36
2017-11-05T12:45:52.205Z,78.73
2017-11-05T12:48:21.299Z,81.64
2017-11-05T12:50:50.407Z,84.55
2017-11-05T12:53:19.674Z,85.63
2017-11-05T12:55:49.229Z,87.77
2017-11-05T12:58:18.308Z,88.84
2017-11-05T13:00:47.527Z,88.34
2017-11-05T13:03:16.837Z,89.40
2017-11-05T13:05:46.858Z,91.22
2017-11-05T13:08:16.045Z,90.52
2017-11-05T13:10:45.071Z,90.08
2017-11-05T13:13:14.323Z,91.26
2017-11-05T13:15:45.328Z,92.68
2017-11-05T13:18:14.505Z,93.06
2017-11-05T13:20:45.546Z,93.17
2017-11-05T13:23:14.581Z,93.88
2017-11-05T13:28:19.915Z,93.35
2017-11-05T13:30:49.137Z,94.09
2017-11-05T13:33:18.287Z,93.56
2017-11-05T13:38:23.452Z,94.87
2017-11-05T13:40:52.779Z,94.82
2017-11-05T13:43:22.016Z,94.91
2017-11-05T13:45:57.623Z,94.86
2017-11-05T13:48:26.910Z,94.20
2017-11-05T13:53:31.903Z,95.34
2017-11-05T13:56:01.902Z,94.92
2017-11-05T13:58:30.939Z,95.60
2017-11-05T14:03:35.852Z,95.45
2017-11-05T14:06:04.878Z,95.01
2017-11-05T14:08:33.935Z,95.09
2017-11-05T14:11:02.967Z,94.84
2017-11-05T14:13:32.112Z,93.85
2017-11-05T14:16:01.154Z,94.18
2017-11-05T14:18:30.192Z,93.66
2017-11-05T14:23:35.107Z,93.68
2017-11-05T14:26:04.138Z,93.65
2017-11-05T14:28:33.185Z,93.70
2017-11-05T14:33:38.166Z,94.16
2017-11-05T14:36:07.240Z,94.44
2017-11-05T14:41:12.197Z,94.50
2017-11-05T14:46:17.166Z,95.03
2017-11-05T14:48:46.201Z,94.15
2017-11-05T14:51:15.227Z,94.04
2017-11-05T14:53:44.258Z,94.09
2017-11-05T14:56:13.308Z,94.34
2017-11-05T15:01:18.454Z,94.29
2017-11-05T15:03:47.486Z,94.43
2017-11-05T15:06:16.513Z,95.11
2017-11-05T15:08:49.201Z,95.17
2017-11-05T15:11:19.214Z,95.40
2017-11-05T15:13:50.718Z,95.15
2017-11-05T15:16:28.770Z,95.40
2017-11-05T15:18:57.843Z,95.67
2017-11-05T15:21:26.895Z,95.78
2017-11-05T15:23:56.881Z,96.26
2017-11-05T15:29:02.745Z,97.24
2017-11-05T15:31:31.877Z,97.11
2017-11-05T15:34:00.929Z,97.34
2017-11-05T15:36:39.787Z,97.47
2017-11-05T15:39:08.809Z,97.62
2017-11-05T15:41:37.976Z,97.98
2017-11-05T15:44:07.027Z,98.18
2017-11-05T15:46:49.768Z,97.93
2017-11-05T15:52:07.779Z,98.13
2017-11-05T15:54:49.704Z,98.50
2017-11-05T15:57:18.770Z,98.93
2017-11-05T15:59:47.792Z,98.72
2017-11-05T16:02:16.827Z,98.89
2017-11-05T16:04:45.884Z,98.74
2017-11-05T16:07:14.957Z,98.72
2017-11-05T16:09:45.976Z,97.72
2017-11-05T16:12:15.115Z,97.86
2017-11-05T16:17:25.286Z,97.33
2017-11-05T16:19:54.315Z,97.45
2017-11-05T16:25:08.207Z,97.79
2017-11-05T16:27:42.826Z,98.22
2017-11-05T16:30:11.851Z,98.04
2017-11-05T16:32:40.912Z,97.84
2017-11-05T16:35:09.923Z,98.42
2017-11-05T16:37:38.947Z,98.01
2017-11-05T16:40:08.019Z,98.45
2017-11-05T16:42:37.060Z,98.74
2017-11-05T16:45:06.110Z,97.82
2017-11-05T16:47:35.150Z,97.49
2017-11-05T16:50:04.335Z,97.49
2017-11-05T16:52:33.416Z,97.82
2017-11-05T16:55:02.457Z,97.67
2017-11-05T16:57:31.502Z,97.82
2017-11-05T17:00:00.541Z,97.57
2017-11-05T17:02:30.639Z,98.07
2017-11-05T17:04:59.667Z,97.97
2017-11-05T17:07:29.646Z,97.68
2017-11-05T17:09:58.706Z,97.45
2017-11-05T17:12:28.881Z,97.63
2017-11-05T17:17:42.250Z,97.59
2017-11-05T17:20:11.530Z,97.95
2017-11-05T17:22:44.945Z,98.14
2017-11-05T17:25:13.996Z,98.03
2017-11-05T17:30:24.202Z,98.08
2017-11-05T17:32:53.234Z,98.03
2017-11-05T17:35:22.323Z,97.96
2017-11-05T17:37:51.511Z,98.06
2017-11-05T17:40:24.299Z,98.35
2017-11-05T17:42:53.323Z,98.48
2017-11-05T17:45:22.413Z,98.33
2017-11-05T17:47:51.471Z,98.45
2017-11-05T17:50:20.525Z,98.43
2017-11-05T17:52:49.668Z,98.19
2017-11-05T17:55:18.697Z,98.45
2017-11-05T17:57:47.732Z,98.61
2017-11-05T18:00:16.775Z,98.68
2017-11-05T18:02:46.152Z,98.87
2017-11-05T18:07:52.967Z,98.75
2017-11-05T18:10:22.038Z,98.70
2017-11-05T18:12:52.183Z,98.45
2017-11-05T18:15:22.540Z,98.66
2017-11-05T18:17:51.574Z,99.08
2017-11-05T18:20:20.868Z,99.21
2017-11-05T18:25:26.823Z,99.31
2017-11-05T18:27:55.888Z,99.09
2017-11-05T18:30:24.977Z,99.09
2017-11-05T18:32:55.047Z,98.85
2017-11-05T18:35:24.142Z,98.89
2017-11-05T18:37:56.238Z,99.06
2017-11-05T18:40:25.718Z,99.58
2017-11-05T18:42:57.011Z,99.15
2017-11-05T18:45:26.064Z,99.32
2017-11-05T18:47:55.140Z,99.05
2017-11-05T18:50:24.175Z,99.25
2017-11-05T18:52:53.264Z,99.59
2017-11-05T18:55:23.474Z,99.72
2017-11-05T18:57:53.514Z,99.42
2017-11-05T19:00:22.555Z,99.72
2017-11-05T19:02:51.694Z,99.92
2017-11-05T19:07:59.432Z,99.57
2017-11-05T19:10:29.676Z,99.30
2017-11-05T19:13:00.151Z,98.93
2017-11-05T19:15:29.644Z,98.77
2017-11-05T19:18:01.071Z,98.88
2017-11-05T19:20:30.315Z,98.72
2017-11-05T19:22:59.457Z,98.89
2017-11-05T19:25:29.954Z,99.20
2017-11-05T19:27:59.779Z,98.81
2017-11-05T19:30:29.439Z,98.50
2017-11-05T19:35:34.299Z,98.34
2017-11-05T19:38:07.341Z,98.57
2017-11-05T19:40:36.371Z,98.52
2017-11-05T19:43:05.476Z,98.84
2017-11-05T19:45:34.518Z,98.84
2017-11-05T19:48:03.571Z,98.76
2017-11-05T19:50:32.771Z,98.68
2017-11-05T19:53:02.344Z,98.43
2017-11-05T19:55:31.474Z,98.52
2017-11-05T19:58:01.545Z,98.17
2017-11-05T20:00:30.741Z,98.43
2017-11-05T20:02:59.804Z,97.96
2017-11-05T20:05:29.821Z,98.12
2017-11-05T20:10:34.751Z,98.05
2017-11-05T20:13:03.820Z,98.62
2017-11-05T20:15:32.875Z,98.45
2017-11-05T20:20:37.779Z,97.54
2017-11-05T20:23:06.853Z,97.74
2017-11-05T20:25:35.920Z,97.96
2017-11-05T20:28:04.957Z,98.15
2017-11-05T20:30:34.024Z,98.11
2017-11-05T20:33:06.366Z,97.94
2017-11-05T20:35:35.433Z,97.69
2017-11-05T20:38:04.509Z,97.95
2017-11-05T20:40:33.569Z,98.07
2017-11-05T20:43:14.679Z,98.05
2017-11-05T20:45:44.739Z,98.11
2017-11-05T20:48:13.852Z,98.23
2017-11-05T20:50:43.892Z,98.29
2017-11-05T20:53:13.035Z,98.49
2017-11-05T20:55:42.264Z,98.99
2017-11-05T20:58:11.535Z,99.20
2017-11-05T21:00:40.631Z,98.51
2017-11-05T21:03:14.239Z,98.48
2017-11-05T21:05:43.295Z,98.61
2017-11-05T21:08:12.366Z,98.59
2017-11-05T21:10:41.427Z,98.37
2017-11-05T21:13:10.480Z,98.34
2017-11-05T21:15:39.549Z,98.66
2017-11-05T21:18:08.666Z,98.66
2017-11-05T21:20:37.901Z,98.52
2017-11-05T21:25:43.131Z,97.63
2017-11-05T21:28:12.316Z,97.94
2017-11-05T21:30:41.432Z,98.37
2017-11-05T21:33:10.493Z,98.40
2017-11-05T21:35:39.752Z,98.64
2017-11-05T21:38:10.843Z,98.45
2017-11-05T21:40:42.404Z,98.53
2017-11-05T21:43:12.632Z,98.29
2017-11-05T21:45:43.548Z,98.34
2017-11-05T21:48:12.564Z,97.97
2017-11-05T21:50:41.606Z,98.34
2017-11-05T21:53:11.631Z,98.39
2017-11-05T21:55:48.609Z,98.30
2017-11-05T21:58:28.353Z,98.45
2017-11-05T22:00:58.677Z,98.62
2017-11-05T22:03:27.723Z,98.27
2017-11-05T22:08:32.763Z,98.31
2017-11-05T22:11:02.748Z,98.79
2017-11-05T22:13:31.823Z,98.62
2017-11-05T22:16:08.608Z,98.42
2017-11-05T22:18:37.662Z,98.45
2017-11-05T22:21:06.716Z,98.41
2017-11-05T22:23:35.739Z,98.28
2017-11-05T22:26:08.172Z,97.59
2017-11-05T22:28:37.218Z,97.73
2017-11-05T22:31:06.255Z,98.14
2017-11-05T22:33:35.298Z,98.29
2017-11-05T22:36:09.209Z,98.69
2017-11-05T22:38:38.256Z,98.26
2017-11-05T22:41:07.292Z,98.41
2017-11-05T22:43:37.442Z,98.00
2017-11-05T22:46:06.491Z,98.37
2017-11-05T22:48:35.540Z,98.22
2017-11-05T22:51:04.592Z,98.38
2017-11-05T22:53:33.643Z,98.27
2017-11-05T22:56:02.689Z,98.52
2017-11-05T22:58:31.749Z,98.44
2017-11-05T23:01:00.780Z,98.11
2017-11-05T23:03:29.851Z,98.30
2017-11-05T23:05:58.907Z,98.60
2017-11-05T23:08:28.931Z,98.28
2017-11-05T23:10:57.963Z,98.38
2017-11-05T23:16:02.885Z,98.22
2017-11-05T23:18:32.174Z,98.64
2017-11-05T23:21:01.208Z,98.92
2017-11-05T23:23:32.301Z,98.76
2017-11-05T23:26:01.337Z,98.14
2017-11-05T23:28:32.294Z,98.78
2017-11-05T23:31:01.362Z,98.71
2017-11-05T23:36:06.354Z,98.15
2017-11-05T23:38:35.419Z,98.36
2017-11-05T23:41:04.466Z,98.34
2017-11-05T23:43:36.989Z,98.47
2017-11-05T23:46:06.118Z,98.49
2017-11-05T23:48:35.151Z,98.60
2017-11-05T23:51:04.182Z,98.41
2017-11-05T23:53:33.230Z,98.45
2017-11-05T23:56:02.280Z,98.57
